Time;durP1;ratioP1;P1;durP2;ratioP2;P2;SDS_P1;SDS_P2;PMS_P1;PMS_P2;Temp;Humidity;BMP_temperature;BMP_pressure;BME280_temperature;BME280_humidity;BME280_pressure;Samples;Min_cycle;Max_cycle;Signal;HPM_P1;HPM_P2
2023/08/12 00:01:55;;;;;;;276.45;71.70;;;;;;;;;;4998443;28;20143;-83
2023/08/12 00:04:23;;;;;;;280.92;76.07;;;;;;;;;;4996978;28;20038;-85
2023/08/12 00:06:49;;;;;;;257.60;68.00;;;;;;;;;;5006246;28;20116;-86
2023/08/12 00:09:15;;;;;;;214.95;61.97;;;;;;;;;;5005795;28;21706;-86
2023/08/12 00:11:41;;;;;;;157.68;61.13;;;;;;;;;;5005914;28;20041;-82
2023/08/12 00:14:07;;;;;;;154.75;58.28;;;;;;;;;;4997773;28;20041;-85
2023/08/12 00:16:33;;;;;;;206.85;64.88;;;;;;;;;;4984779;28;20083;-88
2023/08/12 00:19:00;;;;;;;172.15;62.35;;;;;;;;;;5005120;28;20049;-80
2023/08/12 00:21:26;;;;;;;224.15;64.82;;;;;;;;;;5006151;28;20034;-82
2023/08/12 00:23:52;;;;;;;268.00;68.57;;;;;;;;;;5004248;28;20083;-83
2023/08/12 00:26:18;;;;;;;308.00;76.03;;;;;;;;;;4983660;28;20033;-87
2023/08/12 00:28:46;;;;;;;317.27;78.78;;;;;;;;;;5004416;28;20029;-84
2023/08/12 00:31:14;;;;;;;366.75;85.20;;;;;;;;;;5003698;28;20037;-87
2023/08/12 00:33:40;;;;;;;244.43;72.55;;;;;;;;;;5005704;28;20038;-87
2023/08/12 00:36:06;;;;;;;270.13;75.75;;;;;;;;;;4983326;28;20061;-86
2023/08/12 00:38:32;;;;;;;384.85;85.63;;;;;;;;;;4997652;28;20053;-84
2023/08/12 00:40:58;;;;;;;278.75;72.22;;;;;;;;;;5005710;28;20042;-88
2023/08/12 00:43:24;;;;;;;286.17;74.07;;;;;;;;;;5004921;28;20061;-84
2023/08/12 00:45:51;;;;;;;285.23;71.43;;;;;;;;;;5005714;28;20481;-85
2023/08/12 00:48:18;;;;;;;255.38;70.32;;;;;;;;;;5005639;28;20704;-83
2023/08/12 00:50:46;;;;;;;317.10;71.95;;;;;;;;;;5005197;28;20042;-87
2023/08/12 00:53:15;;;;;;;370.40;78.43;;;;;;;;;;5004202;28;20034;-81
2023/08/12 00:55:44;;;;;;;320.58;79.22;;;;;;;;;;5003787;28;20038;-88
2023/08/12 00:58:10;;;;;;;248.55;74.20;;;;;;;;;;5004906;28;20034;-83
2023/08/12 01:00:37;;;;;;;215.35;66.75;;;;;;;;;;5004122;28;20025;-85
2023/08/12 01:03:05;;;;;;;312.73;78.35;;;;;;;;;;4995984;28;20140;-88
2023/08/12 01:05:31;;;;;;;306.02;73.15;;;;;;;;;;5004783;28;20113;-85
2023/08/12 01:07:57;;;;;;;254.15;74.55;;;;;;;;;;4997350;28;20034;-84
2023/08/12 01:10:30;;;;;;;343.58;81.07;;;;;;;;;;4984355;28;20030;-89
2023/08/12 01:13:03;;;;;;;274.67;72.13;;;;;;;;;;4985229;28;20038;-87
2023/08/12 01:15:29;;;;;;;315.30;76.95;;;;;;;;;;5004728;28;20038;-89
2023/08/12 01:17:56;;;;;;;171.48;63.17;;;;;;;;;;5003862;28;20095;-83
2023/08/12 01:20:25;;;;;;;204.88;68.95;;;;;;;;;;5005023;28;20044;-83
2023/08/12 01:22:53;;;;;;;180.38;62.70;;;;;;;;;;5004956;28;20041;-85
2023/08/12 01:25:19;;;;;;;216.82;69.05;;;;;;;;;;4987409;28;20037;-85
2023/08/12 01:27:45;;;;;;;241.38;72.07;;;;;;;;;;5004721;28;20034;-87
2023/08/12 01:30:14;;;;;;;249.07;74.47;;;;;;;;;;5004617;28;20022;-83
2023/08/12 01:32:50;;;;;;;203.20;64.78;;;;;;;;;;4987925;28;20038;-85
2023/08/12 01:35:35;;;;;;;259.45;72.28;;;;;;;;;;4996793;28;20476;-86
2023/08/12 01:38:03;;;;;;;268.40;74.40;;;;;;;;;;4996503;28;20080;-89
2023/08/12 01:40:29;;;;;;;255.90;75.55;;;;;;;;;;5006322;28;20033;-84
2023/08/12 01:42:55;;;;;;;269.45;74.93;;;;;;;;;;5004620;28;20111;-82
2023/08/12 01:45:24;;;;;;;247.52;68.63;;;;;;;;;;5007867;28;20041;-88
2023/08/12 01:47:51;;;;;;;249.80;73.95;;;;;;;;;;5004554;28;20037;-85
2023/08/12 01:50:17;;;;;;;206.70;64.57;;;;;;;;;;5004429;28;20034;-83
2023/08/12 01:52:43;;;;;;;228.30;63.78;;;;;;;;;;4984524;28;20064;-89
2023/08/12 01:55:09;;;;;;;203.60;68.18;;;;;;;;;;4987547;28;20038;-85
2023/08/12 01:57:35;;;;;;;200.13;66.50;;;;;;;;;;5004351;28;20070;-88
2023/08/12 02:00:02;;;;;;;224.73;65.35;;;;;;;;;;5005537;28;20022;-88
2023/08/12 02:02:28;;;;;;;231.68;65.80;;;;;;;;;;5002783;28;20061;-86
2023/08/12 02:04:54;;;;;;;180.07;61.25;;;;;;;;;;5003353;28;20108;-85
2023/08/12 02:07:20;;;;;;;209.75;61.47;;;;;;;;;;5004382;28;20087;-87
2023/08/12 02:09:46;;;;;;;190.73;62.25;;;;;;;;;;4988006;28;20038;-82
2023/08/12 02:12:12;;;;;;;181.20;65.07;;;;;;;;;;5006261;28;20055;-86
2023/08/12 02:14:38;;;;;;;235.55;69.13;;;;;;;;;;4984864;28;20033;-89
2023/08/12 02:17:07;;;;;;;180.55;63.22;;;;;;;;;;4990562;28;20045;-83
2023/08/12 02:19:35;;;;;;;183.65;63.85;;;;;;;;;;4999366;28;20038;-83
2023/08/12 02:22:04;;;;;;;184.15;64.80;;;;;;;;;;5007549;28;20419;-82
2023/08/12 02:24:30;;;;;;;218.45;63.97;;;;;;;;;;5007294;28;20026;-86
2023/08/12 02:26:58;;;;;;;156.43;60.17;;;;;;;;;;4984401;28;20041;-88
2023/08/12 02:29:24;;;;;;;206.02;66.85;;;;;;;;;;5007685;28;20037;-83
2023/08/12 02:31:53;;;;;;;168.07;68.05;;;;;;;;;;5000031;28;20041;-89
2023/08/12 02:34:19;;;;;;;163.02;64.18;;;;;;;;;;5006486;28;20034;-86
2023/08/12 02:36:45;;;;;;;203.25;65.82;;;;;;;;;;4987667;28;20034;-89
2023/08/12 02:39:11;;;;;;;178.85;62.65;;;;;;;;;;5007064;28;20030;-85
2023/08/12 02:41:36;;;;;;;195.35;67.20;;;;;;;;;;5006294;28;21785;-84
2023/08/12 02:44:02;;;;;;;169.00;61.00;;;;;;;;;;5007317;28;20037;-88
2023/08/12 02:46:28;;;;;;;189.30;60.97;;;;;;;;;;4990255;28;20060;-84
2023/08/12 02:48:54;;;;;;;176.63;62.22;;;;;;;;;;5006710;28;20119;-85
2023/08/12 02:51:20;;;;;;;173.40;57.67;;;;;;;;;;4983062;28;20041;-85
2023/08/12 02:53:46;;;;;;;207.00;60.08;;;;;;;;;;5007153;28;20068;-84
2023/08/12 02:56:12;;;;;;;184.25;63.35;;;;;;;;;;5000131;28;20065;-87
2023/08/12 02:58:38;;;;;;;182.77;63.22;;;;;;;;;;4999542;28;20033;-83
2023/08/12 03:01:04;;;;;;;187.45;58.67;;;;;;;;;;5000028;28;21213;-83
2023/08/12 03:03:30;;;;;;;148.48;60.75;;;;;;;;;;5006957;28;20509;-88
2023/08/12 03:05:58;;;;;;;176.30;58.45;;;;;;;;;;5005693;28;20088;-85
2023/08/12 03:08:27;;;;;;;167.20;55.33;;;;;;;;;;5006601;28;20034;-86
2023/08/12 03:11:03;;;;;;;162.98;54.22;;;;;;;;;;5007460;28;20034;-83
2023/08/12 03:13:29;;;;;;;151.18;55.55;;;;;;;;;;5008009;28;20042;-85
2023/08/12 03:15:55;;;;;;;213.43;60.20;;;;;;;;;;4984190;28;20466;-86
2023/08/12 03:18:21;;;;;;;189.90;58.92;;;;;;;;;;4990112;28;20041;-81
2023/08/12 03:20:47;;;;;;;174.15;57.03;;;;;;;;;;5007824;28;20084;-86
2023/08/12 03:23:13;;;;;;;155.55;56.30;;;;;;;;;;4998812;28;20044;-89
2023/08/12 03:25:39;;;;;;;163.60;54.90;;;;;;;;;;5006656;28;20037;-82
2023/08/12 03:28:05;;;;;;;162.18;56.17;;;;;;;;;;5006804;28;20048;-88
2023/08/12 03:30:31;;;;;;;125.22;53.05;;;;;;;;;;5006686;28;20489;-85
2023/08/12 03:32:57;;;;;;;124.90;50.72;;;;;;;;;;5006333;28;20041;-82
2023/08/12 03:35:23;;;;;;;148.82;51.28;;;;;;;;;;5007460;28;21751;-86
2023/08/12 03:37:51;;;;;;;105.88;48.72;;;;;;;;;;5011968;28;20041;-83
2023/08/12 03:40:17;;;;;;;104.95;46.67;;;;;;;;;;5007087;28;20025;-87
2023/08/12 03:42:43;;;;;;;148.98;46.72;;;;;;;;;;5008702;28;20114;-83
2023/08/12 03:45:09;;;;;;;108.80;46.03;;;;;;;;;;5006845;28;20037;-87
2023/08/12 03:47:35;;;;;;;140.68;47.55;;;;;;;;;;5006042;28;20022;-86
2023/08/12 03:50:01;;;;;;;124.80;51.65;;;;;;;;;;5006069;28;20347;-83
2023/08/12 03:52:27;;;;;;;134.13;51.00;;;;;;;;;;5005982;28;20042;-85
2023/08/12 03:54:53;;;;;;;164.65;50.28;;;;;;;;;;4988303;28;20042;-81
2023/08/12 03:57:21;;;;;;;115.72;48.67;;;;;;;;;;5005941;28;20068;-83
2023/08/12 03:59:47;;;;;;;132.90;48.08;;;;;;;;;;4985415;28;20454;-82
2023/08/12 04:02:15;;;;;;;95.22;43.20;;;;;;;;;;5005008;28;20532;-85
2023/08/12 04:04:43;;;;;;;119.90;45.85;;;;;;;;;;4981446;28;20034;-87
2023/08/12 04:07:09;;;;;;;118.45;43.10;;;;;;;;;;4999486;28;20036;-87
2023/08/12 04:09:35;;;;;;;99.43;39.08;;;;;;;;;;5005788;28;20436;-83
2023/08/12 04:12:01;;;;;;;92.25;38.38;;;;;;;;;;5005816;28;20133;-85
2023/08/12 04:14:27;;;;;;;101.40;40.70;;;;;;;;;;5006517;28;20034;-89
2023/08/12 04:16:56;;;;;;;87.65;44.50;;;;;;;;;;5006460;28;20771;-84
2023/08/12 04:19:24;;;;;;;75.60;37.63;;;;;;;;;;5004382;28;20455;-85
2023/08/12 04:21:50;;;;;;;77.40;39.42;;;;;;;;;;5005309;28;20045;-84
2023/08/12 04:24:18;;;;;;;58.90;28.25;;;;;;;;;;5006154;28;20037;-86
2023/08/12 04:26:44;;;;;;;60.25;29.70;;;;;;;;;;5005612;28;20034;-86
2023/08/12 04:29:10;;;;;;;58.13;28.00;;;;;;;;;;5006512;28;20064;-87
2023/08/12 04:31:36;;;;;;;65.82;30.08;;;;;;;;;;5005893;28;20112;-82
2023/08/12 04:34:03;;;;;;;76.22;31.00;;;;;;;;;;5004893;28;20472;-86
2023/08/12 04:36:30;;;;;;;56.13;28.55;;;;;;;;;;5004442;28;20037;-83
2023/08/12 04:38:56;;;;;;;41.22;24.40;;;;;;;;;;5005476;28;20044;-88
2023/08/12 04:41:23;;;;;;;60.70;27.67;;;;;;;;;;5005139;28;20033;-81
2023/08/12 04:43:49;;;;;;;59.05;28.00;;;;;;;;;;4998349;28;20041;-88
2023/08/12 04:46:15;;;;;;;63.15;27.60;;;;;;;;;;5005074;28;20030;-85
2023/08/12 04:48:45;;;;;;;71.03;28.95;;;;;;;;;;5005577;28;20091;-89
2023/08/12 04:51:11;;;;;;;66.93;29.75;;;;;;;;;;5004996;28;20037;-85
2023/08/12 04:53:37;;;;;;;55.97;25.90;;;;;;;;;;4987658;28;20033;-81
2023/08/12 04:56:04;;;;;;;51.97;26.48;;;;;;;;;;4997835;28;20042;-87
2023/08/12 04:58:29;;;;;;;56.63;26.48;;;;;;;;;;5006098;28;20038;-87
2023/08/12 05:00:58;;;;;;;50.33;26.80;;;;;;;;;;4996986;28;20370;-83
2023/08/12 05:03:24;;;;;;;49.90;26.73;;;;;;;;;;4996801;28;20033;-85
2023/08/12 05:05:53;;;;;;;49.92;24.77;;;;;;;;;;4987752;28;20041;-83
2023/08/12 05:08:19;;;;;;;45.08;22.00;;;;;;;;;;5004621;28;20125;-86
2023/08/12 05:10:48;;;;;;;44.35;22.33;;;;;;;;;;4983232;28;20038;-83
2023/08/12 05:13:14;;;;;;;36.00;20.73;;;;;;;;;;5004777;28;20347;-83
2023/08/12 05:15:40;;;;;;;41.88;20.42;;;;;;;;;;5003727;28;20056;-85
2023/08/12 05:18:06;;;;;;;29.83;17.00;;;;;;;;;;5004100;28;20068;-86
2023/08/12 05:20:32;;;;;;;38.95;19.00;;;;;;;;;;5004591;28;20108;-82
2023/08/12 05:22:58;;;;;;;34.67;18.80;;;;;;;;;;5004109;28;20446;-81
2023/08/12 05:25:24;;;;;;;31.20;18.15;;;;;;;;;;5005290;28;20434;-86
2023/08/12 05:27:53;;;;;;;31.35;18.15;;;;;;;;;;4997185;28;20030;-82
2023/08/12 05:30:21;;;;;;;36.63;19.73;;;;;;;;;;5004171;28;20035;-86
2023/08/12 05:32:47;;;;;;;32.72;18.35;;;;;;;;;;4996778;28;20120;-85
2023/08/12 05:35:13;;;;;;;28.52;17.30;;;;;;;;;;5004425;28;21678;-86
2023/08/12 05:37:39;;;;;;;28.80;17.77;;;;;;;;;;5004675;28;20119;-84
2023/08/12 05:40:08;;;;;;;29.15;15.45;;;;;;;;;;5000465;28;20084;-84
2023/08/12 05:42:34;;;;;;;22.83;14.70;;;;;;;;;;4998032;28;20454;-87
2023/08/12 05:45:00;;;;;;;19.35;13.88;;;;;;;;;;5006376;28;20366;-82
2023/08/12 05:47:26;;;;;;;16.33;12.98;;;;;;;;;;5006786;28;20022;-86
2023/08/12 05:49:52;;;;;;;21.15;13.85;;;;;;;;;;4985599;28;20512;-87
2023/08/12 05:52:18;;;;;;;28.75;16.10;;;;;;;;;;5007241;28;20049;-85
2023/08/12 05:54:44;;;;;;;27.52;15.15;;;;;;;;;;5001024;28;20045;-85
2023/08/12 05:57:10;;;;;;;27.83;15.35;;;;;;;;;;4985005;28;20374;-86
2023/08/12 05:59:36;;;;;;;26.35;16.70;;;;;;;;;;5008674;28;20038;-85
2023/08/12 06:02:02;;;;;;;30.88;17.45;;;;;;;;;;5008166;28;20191;-90
2023/08/12 06:04:28;;;;;;;32.45;18.33;;;;;;;;;;5009344;28;20022;-89
2023/08/12 06:06:54;;;;;;;34.83;17.88;;;;;;;;;;5007472;28;20033;-91
2023/08/12 06:09:20;;;;;;;37.42;19.85;;;;;;;;;;5004548;28;20878;-93
2023/08/12 06:11:48;;;;;;;33.20;20.75;;;;;;;;;;5008400;28;20033;-84
2023/08/12 06:14:14;;;;;;;43.83;22.00;;;;;;;;;;5008924;28;20569;-93
2023/08/12 06:16:40;;;;;;;37.72;21.20;;;;;;;;;;5003166;28;20037;-83
2023/08/12 06:19:06;;;;;;;50.63;24.70;;;;;;;;;;5009741;28;20577;-89
2023/08/12 06:21:32;;;;;;;65.85;26.67;;;;;;;;;;4990840;28;20033;-88
2023/08/12 06:23:58;;;;;;;56.05;26.65;;;;;;;;;;5012585;28;20018;-89
2023/08/12 06:26:26;;;;;;;48.83;25.88;;;;;;;;;;4991230;28;20080;-93
2023/08/12 06:28:52;;;;;;;46.92;25.95;;;;;;;;;;5008535;28;20033;-90
2023/08/12 06:31:20;;;;;;;65.88;25.45;;;;;;;;;;5009131;28;20030;-95
2023/08/12 06:33:49;;;;;;;55.58;26.83;;;;;;;;;;5006562;28;20045;-88
2023/08/12 06:36:15;;;;;;;51.58;27.08;;;;;;;;;;5008622;28;20034;-94
2023/08/12 06:38:41;;;;;;;64.80;27.13;;;;;;;;;;5007731;28;20037;-85
2023/08/12 06:41:07;;;;;;;58.00;26.08;;;;;;;;;;5008501;28;20061;-92
2023/08/12 06:43:33;;;;;;;47.15;24.17;;;;;;;;;;5000120;28;20029;-86
2023/08/12 06:45:59;;;;;;;43.13;23.70;;;;;;;;;;5006403;28;20034;-90
2023/08/12 06:48:25;;;;;;;41.03;22.05;;;;;;;;;;5008291;28;20025;-86
2023/08/12 06:50:57;;;;;;;38.25;21.13;;;;;;;;;;5008111;28;20442;-87
2023/08/12 06:53:23;;;;;;;36.70;20.17;;;;;;;;;;5008325;28;20251;-86
2023/08/12 06:55:49;;;;;;;37.70;19.73;;;;;;;;;;4984755;28;20434;-91
2023/08/12 06:58:17;;;;;;;31.20;17.75;;;;;;;;;;5000388;28;20030;-88
2023/08/12 07:00:43;;;;;;;27.05;15.57;;;;;;;;;;4990702;28;20022;-93
2023/08/12 07:03:09;;;;;;;22.35;13.27;;;;;;;;;;5007635;28;20361;-84
2023/08/12 07:05:38;;;;;;;22.77;12.55;;;;;;;;;;5008483;28;20034;-91
2023/08/12 07:08:04;;;;;;;19.15;11.40;;;;;;;;;;5000296;28;20359;-85
2023/08/12 07:10:32;;;;;;;14.75;9.30;;;;;;;;;;5006323;28;20041;-88
2023/08/12 07:12:58;;;;;;;17.70;11.55;;;;;;;;;;5007983;28;20037;-89
2023/08/12 07:15:26;;;;;;;15.93;9.15;;;;;;;;;;5006200;28;20034;-89
2023/08/12 07:17:52;;;;;;;10.95;7.57;;;;;;;;;;5005915;28;20029;-87
2023/08/12 07:20:18;;;;;;;9.07;6.43;;;;;;;;;;5005979;28;20344;-85
2023/08/12 07:22:44;;;;;;;9.20;5.57;;;;;;;;;;4999368;28;20037;-92
2023/08/12 07:25:10;;;;;;;10.57;6.88;;;;;;;;;;4982126;28;20918;-82
2023/08/12 07:27:38;;;;;;;11.15;6.47;;;;;;;;;;5006543;28;20404;-86
2023/08/12 07:30:04;;;;;;;10.10;6.85;;;;;;;;;;4982690;28;20021;-86
2023/08/12 07:32:30;;;;;;;7.40;5.38;;;;;;;;;;5008651;28;20069;-88
2023/08/12 07:34:59;;;;;;;11.63;7.07;;;;;;;;;;5008430;28;20038;-92
2023/08/12 07:37:25;;;;;;;9.32;6.32;;;;;;;;;;5007488;28;20038;-86
2023/08/12 07:39:53;;;;;;;9.05;5.88;;;;;;;;;;4999950;28;20038;-89
2023/08/12 07:42:20;;;;;;;8.02;5.32;;;;;;;;;;5005440;28;20037;-87
2023/08/12 07:44:46;;;;;;;9.70;6.28;;;;;;;;;;4989942;28;20038;-87
2023/08/12 07:47:12;;;;;;;8.70;6.15;;;;;;;;;;5007144;28;20113;-90
2023/08/12 07:49:38;;;;;;;14.68;6.03;;;;;;;;;;4983002;28;20046;-85
2023/08/12 07:52:05;;;;;;;10.55;4.80;;;;;;;;;;4988433;28;20507;-88
2023/08/12 07:54:31;;;;;;;10.27;5.45;;;;;;;;;;4989197;28;20398;-90
2023/08/12 07:56:57;;;;;;;13.98;5.10;;;;;;;;;;5006640;28;20029;-84
2023/08/12 07:59:22;;;;;;;9.68;4.75;;;;;;;;;;5006843;28;20107;-85
2023/08/12 08:01:51;;;;;;;8.32;4.70;;;;;;;;;;5006840;28;20030;-90
2023/08/12 08:04:17;;;;;;;8.13;4.93;;;;;;;;;;4981125;28;20030;-85
2023/08/12 08:06:45;;;;;;;9.88;5.25;;;;;;;;;;4989241;28;20041;-86
2023/08/12 08:09:11;;;;;;;8.38;3.78;;;;;;;;;;5005794;28;20057;-86
2023/08/12 08:11:37;;;;;;;8.43;4.38;;;;;;;;;;4989328;28;20061;-87
2023/08/12 08:14:03;;;;;;;7.88;4.70;;;;;;;;;;5006211;28;20038;-89
2023/08/12 08:16:29;;;;;;;8.07;4.78;;;;;;;;;;4989182;28;20137;-81
2023/08/12 08:18:58;;;;;;;10.70;4.40;;;;;;;;;;4988844;28;20112;-88
2023/08/12 08:21:24;;;;;;;5.03;3.28;;;;;;;;;;4998200;28;20034;-85
2023/08/12 08:23:50;;;;;;;9.90;3.88;;;;;;;;;;5005174;28;20029;-89
2023/08/12 08:26:16;;;;;;;4.95;3.25;;;;;;;;;;5005590;28;20018;-86
2023/08/12 08:28:45;;;;;;;6.68;3.55;;;;;;;;;;5005669;28;20454;-87
2023/08/12 08:31:11;;;;;;;6.05;4.03;;;;;;;;;;5006201;28;20045;-90
2023/08/12 08:33:39;;;;;;;4.22;3.33;;;;;;;;;;4988776;28;20435;-84
2023/08/12 08:36:05;;;;;;;4.50;3.30;;;;;;;;;;4988358;28;20074;-89
2023/08/12 08:38:36;;;;;;;5.90;3.38;;;;;;;;;;4988548;28;20062;-85
2023/08/12 08:41:03;;;;;;;7.05;3.67;;;;;;;;;;5005711;28;20037;-88
2023/08/12 08:43:29;;;;;;;5.10;3.22;;;;;;;;;;5034108;23;20030;-85
2023/08/12 08:46:01;;;;;;;5.43;3.30;;;;;;;;;;5011330;28;20121;-84
2023/08/12 08:48:27;;;;;;;8.70;4.28;;;;;;;;;;5010048;28;20018;-84
2023/08/12 08:50:54;;;;;;;7.72;4.15;;;;;;;;;;5009220;28;20092;-85
2023/08/12 08:53:20;;;;;;;5.28;3.67;;;;;;;;;;5025910;28;20099;-83
2023/08/12 08:55:46;;;;;;;5.97;3.20;;;;;;;;;;5009941;28;20037;-87
2023/08/12 08:58:12;;;;;;;4.63;3.75;;;;;;;;;;5025976;28;20099;-87
2023/08/12 09:00:39;;;;;;;3.90;3.33;;;;;;;;;;5011263;28;20458;-87
2023/08/12 09:03:08;;;;;;;5.47;3.83;;;;;;;;;;5004976;28;20045;-86
2023/08/12 09:05:35;;;;;;;6.38;3.53;;;;;;;;;;5008109;28;20091;-87
2023/08/12 09:08:02;;;;;;;7.78;3.80;;;;;;;;;;5022099;28;20022;-87
2023/08/12 09:10:28;;;;;;;8.13;3.47;;;;;;;;;;5011383;28;20465;-87
2023/08/12 09:12:55;;;;;;;8.70;3.42;;;;;;;;;;5006072;28;20034;-83
2023/08/12 09:15:21;;;;;;;5.10;3.00;;;;;;;;;;5026184;28;20033;-84
2023/08/12 09:17:47;;;;;;;10.73;2.97;;;;;;;;;;5011416;28;20738;-88
2023/08/12 09:20:14;;;;;;;4.50;2.95;;;;;;;;;;5024093;28;20168;-83
2023/08/12 09:22:43;;;;;;;4.28;2.63;;;;;;;;;;5012047;28;20862;-83
2023/08/12 09:25:10;;;;;;;9.50;3.58;;;;;;;;;;5013673;28;20030;-82
2023/08/12 09:27:39;;;;;;;3.28;2.53;;;;;;;;;;5014693;28;20025;-85
2023/08/12 09:30:05;;;;;;;4.82;2.40;;;;;;;;;;5011265;28;20029;-86
2023/08/12 09:32:34;;;;;;;4.88;2.78;;;;;;;;;;5013691;28;20099;-79
2023/08/12 09:35:02;;;;;;;2.88;2.33;;;;;;;;;;5015389;28;20030;-87
2023/08/12 09:37:28;;;;;;;3.67;2.67;;;;;;;;;;5029104;28;20048;-83
2023/08/12 09:39:54;;;;;;;4.80;2.40;;;;;;;;;;5014853;28;20036;-85
2023/08/12 09:42:21;;;;;;;3.88;2.42;;;;;;;;;;5013418;28;20038;-87
2023/08/12 09:44:47;;;;;;;5.88;2.50;;;;;;;;;;5012716;28;20041;-82
2023/08/12 09:47:13;;;;;;;2.65;2.13;;;;;;;;;;5009088;28;20189;-88
2023/08/12 09:49:40;;;;;;;3.42;2.30;;;;;;;;;;5024361;28;20153;-87
2023/08/12 09:52:08;;;;;;;5.07;2.03;;;;;;;;;;5013620;28;20099;-86
2023/08/12 09:54:35;;;;;;;5.00;2.10;;;;;;;;;;5013841;28;20056;-83
2023/08/12 09:57:02;;;;;;;5.68;2.30;;;;;;;;;;5013407;28;20022;-87
2023/08/12 09:59:32;;;;;;;2.33;1.75;;;;;;;;;;5011772;28;20030;-83
2023/08/12 10:01:58;;;;;;;2.63;1.67;;;;;;;;;;5028036;28;20034;-86
2023/08/12 10:04:26;;;;;;;2.08;1.35;;;;;;;;;;5013274;28;20056;-85
2023/08/12 10:06:53;;;;;;;3.55;2.05;;;;;;;;;;5011036;28;20175;-87
2023/08/12 10:09:19;;;;;;;3.85;1.45;;;;;;;;;;5027377;28;20121;-85
2023/08/12 10:11:46;;;;;;;5.05;1.83;;;;;;;;;;5012990;28;20041;-84
2023/08/12 10:14:13;;;;;;;3.33;1.60;;;;;;;;;;5012419;28;20025;-81
2023/08/12 10:16:39;;;;;;;2.60;1.13;;;;;;;;;;5010803;28;20033;-82
2023/08/12 10:19:06;;;;;;;3.22;0.98;;;;;;;;;;5028915;28;20061;-86
2023/08/12 10:21:32;;;;;;;2.83;1.23;;;;;;;;;;5013132;28;20033;-85
2023/08/12 10:24:03;;;;;;;2.35;1.27;;;;;;;;;;5011548;28;20029;-83
2023/08/12 10:26:29;;;;;;;3.05;1.30;;;;;;;;;;5011959;28;20057;-84
2023/08/12 10:28:58;;;;;;;3.70;1.20;;;;;;;;;;5011921;28;20048;-83
2023/08/12 10:31:25;;;;;;;2.60;1.00;;;;;;;;;;5013280;28;20029;-83
2023/08/12 10:33:51;;;;;;;2.47;0.88;;;;;;;;;;5012014;28;20157;-80
2023/08/12 10:36:19;;;;;;;3.65;0.80;;;;;;;;;;5028005;28;20038;-87
2023/08/12 10:38:45;;;;;;;2.03;1.00;;;;;;;;;;5011616;28;20029;-86
2023/08/12 10:41:15;;;;;;;2.63;0.98;;;;;;;;;;5027549;28;20030;-86
2023/08/12 10:44:04;;;;;;;1.42;0.90;;;;;;;;;;5011191;28;20033;-85
2023/08/12 10:46:34;;;;;;;2.38;0.90;;;;;;;;;;5012867;28;20157;-86
2023/08/12 10:49:12;;;;;;;5.45;0.90;;;;;;;;;;5023333;28;20101;-85
2023/08/12 10:51:47;;;;;;;2.40;1.02;;;;;;;;;;5010832;28;20517;-80
2023/08/12 10:54:26;;;;;;;1.42;0.98;;;;;;;;;;5012227;28;20034;-83
2023/08/12 10:57:19;;;;;;;1.20;1.02;;;;;;;;;;5010979;28;20045;-82
2023/08/12 10:59:45;;;;;;;1.40;0.73;;;;;;;;;;5011935;28;20612;-86
2023/08/12 11:02:18;;;;;;;1.88;1.13;;;;;;;;;;5011254;28;20498;-85
2023/08/12 11:04:45;;;;;;;2.63;1.25;;;;;;;;;;5012304;28;20026;-83
2023/08/12 11:07:21;;;;;;;6.20;1.27;;;;;;;;;;5011221;28;20041;-83
2023/08/12 11:09:53;;;;;;;1.40;0.90;;;;;;;;;;5007030;28;20121;-82
2023/08/12 11:12:28;;;;;;;1.25;0.98;;;;;;;;;;5027281;28;20044;-85
2023/08/12 11:14:54;;;;;;;2.72;0.85;;;;;;;;;;5011453;28;20128;-82
2023/08/12 11:17:20;;;;;;;3.75;1.23;;;;;;;;;;5009773;28;20040;-83
2023/08/12 11:19:47;;;;;;;1.95;1.20;;;;;;;;;;5012024;28;20041;-82
2023/08/12 11:22:13;;;;;;;2.63;1.65;;;;;;;;;;5022542;28;20118;-86
2023/08/12 11:24:42;;;;;;;2.53;1.05;;;;;;;;;;5023221;28;20116;-82
2023/08/12 11:27:11;;;;;;;3.53;1.48;;;;;;;;;;5010557;28;20041;-83
2023/08/12 11:29:38;;;;;;;3.15;1.65;;;;;;;;;;5011591;28;20087;-86
2023/08/12 11:32:05;;;;;;;2.33;1.00;;;;;;;;;;5027169;28;20076;-85
2023/08/12 11:34:34;;;;;;;1.92;1.10;;;;;;;;;;5029264;28;20161;-86
2023/08/12 11:37:00;;;;;;;2.92;1.42;;;;;;;;;;5013840;28;20064;-82
2023/08/12 11:39:29;;;;;;;3.00;1.52;;;;;;;;;;5026876;28;20033;-81
2023/08/12 11:41:57;;;;;;;2.35;1.08;;;;;;;;;;5010622;28;20053;-82
2023/08/12 11:44:23;;;;;;;2.38;1.10;;;;;;;;;;5004802;28;20048;-85
2023/08/12 11:46:50;;;;;;;4.13;2.20;;;;;;;;;;5022354;28;20033;-83
2023/08/12 11:49:16;;;;;;;1.42;1.00;;;;;;;;;;5010744;28;20135;-80
2023/08/12 11:51:46;;;;;;;1.80;1.08;;;;;;;;;;5010340;28;20048;-82
2023/08/12 11:54:12;;;;;;;3.28;0.93;;;;;;;;;;5010783;28;20038;-82
2023/08/12 11:56:38;;;;;;;1.75;0.82;;;;;;;;;;5025266;28;20128;-86
2023/08/12 11:59:09;;;;;;;1.45;0.80;;;;;;;;;;5010264;28;20099;-82
2023/08/12 12:01:35;;;;;;;1.52;0.88;;;;;;;;;;5025180;28;20041;-83
2023/08/12 12:04:01;;;;;;;4.38;1.00;;;;;;;;;;5010462;28;20030;-83
2023/08/12 12:06:36;;;;;;;2.03;0.90;;;;;;;;;;5025950;28;20040;-84
2023/08/12 12:09:09;;;;;;;1.05;0.80;;;;;;;;;;5010114;28;20161;-82
2023/08/12 12:11:39;;;;;;;2.25;1.05;;;;;;;;;;5010221;28;20033;-84
2023/08/12 12:14:05;;;;;;;1.58;0.70;;;;;;;;;;5010313;28;20071;-84
2023/08/12 12:16:45;;;;;;;1.52;0.82;;;;;;;;;;5009780;28;20062;-83
2023/08/12 12:19:24;;;;;;;2.42;0.80;;;;;;;;;;5023413;28;20040;-84
2023/08/12 12:21:53;;;;;;;4.30;0.70;;;;;;;;;;5009473;28;20034;-83
2023/08/12 12:24:20;;;;;;;1.48;1.00;;;;;;;;;;5009841;28;20034;-83
2023/08/12 12:26:50;;;;;;;3.75;1.25;;;;;;;;;;5026482;28;20382;-86
2023/08/12 12:29:16;;;;;;;4.05;0.85;;;;;;;;;;5004817;28;21754;-84
2023/08/12 12:31:42;;;;;;;1.85;0.60;;;;;;;;;;5020706;28;20084;-82
2023/08/12 12:34:14;;;;;;;2.83;0.65;;;;;;;;;;5009275;28;20361;-84
2023/08/12 12:36:42;;;;;;;2.20;0.60;;;;;;;;;;5011267;28;20585;-85
2023/08/12 12:39:08;;;;;;;1.60;0.70;;;;;;;;;;5009986;28;20037;-83
2023/08/12 12:41:34;;;;;;;1.63;0.80;;;;;;;;;;5021327;28;20122;-85
2023/08/12 12:44:02;;;;;;;1.48;0.57;;;;;;;;;;5026285;28;20096;-83
2023/08/12 12:46:28;;;;;;;2.30;0.80;;;;;;;;;;5009182;28;20025;-84
2023/08/12 12:48:54;;;;;;;1.80;0.77;;;;;;;;;;5008792;28;20033;-82
2023/08/12 12:51:20;;;;;;;1.63;0.60;;;;;;;;;;5025039;28;20030;-85
2023/08/12 12:53:48;;;;;;;0.95;0.57;;;;;;;;;;5025271;28;20029;-85
2023/08/12 12:56:14;;;;;;;3.88;0.80;;;;;;;;;;5007705;28;20057;-85
2023/08/12 12:58:40;;;;;;;3.92;0.85;;;;;;;;;;5025360;28;20604;-84
2023/08/12 13:01:06;;;;;;;2.67;0.60;;;;;;;;;;5007801;28;20091;-79
2023/08/12 13:03:32;;;;;;;2.30;0.52;;;;;;;;;;5009799;28;20037;-84
2023/08/12 13:05:58;;;;;;;0.60;0.47;;;;;;;;;;5007600;28;20116;-81
2023/08/12 13:08:25;;;;;;;0.70;0.47;;;;;;;;;;5009235;28;20033;-82
2023/08/12 13:10:51;;;;;;;2.78;0.82;;;;;;;;;;5007858;28;20116;-85
2023/08/12 13:13:18;;;;;;;4.03;0.50;;;;;;;;;;5009634;28;20033;-88
2023/08/12 13:15:46;;;;;;;8.52;1.23;;;;;;;;;;5025669;28;20073;-88
2023/08/12 13:18:12;;;;;;;2.80;0.77;;;;;;;;;;5009929;28;20034;-90
2023/08/12 13:20:38;;;;;;;3.25;0.77;;;;;;;;;;5025867;28;20040;-89
2023/08/12 13:23:05;;;;;;;2.90;0.70;;;;;;;;;;5010593;28;20479;-86
2023/08/12 13:25:34;;;;;;;1.05;0.73;;;;;;;;;;5009716;28;20038;-83
2023/08/12 13:28:01;;;;;;;5.13;1.15;;;;;;;;;;5004987;28;20719;-89
2023/08/12 13:30:29;;;;;;;2.35;1.05;;;;;;;;;;5024153;28;20029;-89
2023/08/12 13:32:56;;;;;;;2.03;1.13;;;;;;;;;;5009167;28;20117;-85
2023/08/12 13:35:22;;;;;;;2.00;0.75;;;;;;;;;;5027201;28;21458;-89
2023/08/12 13:37:52;;;;;;;2.30;0.80;;;;;;;;;;5013452;28;20021;-90
2023/08/12 13:40:18;;;;;;;2.58;1.17;;;;;;;;;;5004807;28;20059;-84
2023/08/12 13:42:46;;;;;;;2.13;1.50;;;;;;;;;;5011853;28;20041;-83
2023/08/12 13:45:12;;;;;;;2.72;1.08;;;;;;;;;;5011748;28;20068;-85
2023/08/12 13:47:38;;;;;;;2.30;1.42;;;;;;;;;;5021546;28;20025;-82
2023/08/12 13:50:05;;;;;;;3.10;1.33;;;;;;;;;;5008879;28;20044;-89
2023/08/12 13:52:31;;;;;;;1.92;1.20;;;;;;;;;;5010187;28;20572;-89
2023/08/12 13:54:57;;;;;;;2.25;1.13;;;;;;;;;;5008035;28;20059;-83
2023/08/12 13:57:23;;;;;;;1.83;1.00;;;;;;;;;;5008073;28;20577;-86
2023/08/12 13:59:49;;;;;;;1.73;0.80;;;;;;;;;;5010070;28;20034;-88
2023/08/12 14:02:15;;;;;;;1.00;0.85;;;;;;;;;;5009474;28;20036;-85
2023/08/12 14:04:42;;;;;;;0.88;0.65;;;;;;;;;;5026234;28;20034;-87
2023/08/12 14:07:07;;;;;;;0.80;0.60;;;;;;;;;;5010343;28;20029;-88
2023/08/12 14:09:34;;;;;;;1.05;0.65;;;;;;;;;;5012065;28;20332;-82
2023/08/12 14:12:00;;;;;;;1.33;0.50;;;;;;;;;;5012992;28;20036;-82
2023/08/12 14:14:27;;;;;;;0.60;0.40;;;;;;;;;;5012117;28;20038;-88
2023/08/12 14:16:54;;;;;;;1.52;0.60;;;;;;;;;;5013149;28;20049;-87
2023/08/12 14:19:22;;;;;;;2.45;0.68;;;;;;;;;;5024613;28;20060;-88
2023/08/12 14:21:48;;;;;;;1.08;0.60;;;;;;;;;;5012942;28;20048;-82
2023/08/12 14:24:14;;;;;;;0.82;0.50;;;;;;;;;;5023898;28;20792;-88
2023/08/12 14:26:40;;;;;;;2.42;0.80;;;;;;;;;;5013007;28;20026;-85